Latest Coastal Weather Observations for Alva Beach

IDQ60701

Issued at 11:52 am EST Wednesday 29 June 2016 (issued every 10 minutes, with the page automatically refreshed every 10 minutes)

About coastal observations | Map of coastal stations | Coastal observations for QLD | Marine services | Other Formats
Station Details ID: 033295 Name: ALVA BEACH Lat: -19.46 Lon: 147.48 Height: 7.5 m
Data from the previous 72 hours. | See also: Recent months at Alva Beach
Date/Time
EST
Temp
°C
Wind Pressure Rain since
9am
mm
Weather Cloud Vis
km
Sea
Height
m
Swell
Dir  Spd
kts
Gust
kts
hPa Trend Height
m
Period
s
Dir
29/11:30am 19.2 ESE 7 14 1023.1 - 0.0 - - - - - - -
29/11:00am 19.1 ESE 7 13 1023.4 - 0.0 - - - - - - -
29/10:30am 18.5 SE 6 9 1023.6 - 0.0 - - - - - - -
29/10:00am 17.6 S 7 13 1023.7 - 0.0 - - - - - - -
29/09:30am 16.5 S 7 12 1023.7 - 0.0 - - - - - - -
29/09:00am 15.3 SSW 6 11 1023.9 - 0.0 - - - - - - -
29/08:30am 13.9 SSW 6 11 1023.9 - 0.0 - - - - - - -
29/08:00am 12.5 SSW 6 10 1023.8 - 0.0 - - - - - - -
29/07:30am 10.9 SSW 6 9 1023.5 - 0.0 - - - - - - -
29/07:00am 9.8 SSW 5 8 1023.2 - 0.0 - - - - - - -
29/06:30am 9.7 SSW 6 8 1023.0 - 0.0 - - - - - - -
29/06:00am 9.7 SSW 7 9 1022.8 - 0.0 - - - - - - -
29/05:30am 10.0 SSW 6 8 1022.7 - 0.0 - - - - - - -
29/05:00am 10.4 SSW 6 8 1022.7 - 0.0 - - - - - - -
29/04:30am 10.8 SSW 6 9 1022.5 - 0.0 - - - - - - -
29/04:00am 10.9 SSW 7 9 1022.6 - 0.0 - - - - - - -
29/03:30am 10.9 SSW 6 9 1022.7 - 0.0 - - - - - - -
29/03:00am 11.4 SSW 7 9 1022.7 - 0.0 - - - - - - -
29/02:30am 11.4 SSW 7 9 1022.8 - 0.0 - - - - - - -
29/02:00am 12.2 SSW 6 8 1022.9 - 0.0 - - - - - - -
29/01:30am 12.9 SSW 5 7 1023.2 - 0.0 - - - - - - -
29/01:00am 12.6 SSW 6 8 1023.3 - 0.0 - - - - - - -
29/12:30am 12.9 SSW 5 8 1023.1 - 0.0 - - - - - - -
29/12:00am 13.4 SSW 6 9 1023.1 - 0.0 - - - - - - -
 
Date/Time
EST
Temp
°C
Wind Pressure Rain since
9am
mm
Weather Cloud Vis
km
Sea
Height
m
Swell
Dir  Spd
kts
Gust
kts
hPa Trend Height
m
Period
s
Dir
28/11:30pm 13.8 SSW 6 9 1023.2 - 0.0 - - - - - - -
28/11:00pm 14.4 SSW 6 9 1023.2 - 0.0 - - - - - - -
28/10:30pm 14.8 S 6 8 1023.3 - 0.0 - - - - - - -
28/10:00pm 14.4 S 6 8 1023.2 - 0.0 - - - - - - -
28/09:30pm 14.6 SSW 6 9 1022.9 - 0.0 - - - - - - -
28/09:00pm 14.7 SSW 6 8 1022.7 - 0.0 - - - - - - -
28/08:30pm 15.1 SSW 5 7 1022.3 - 0.0 - - - - - - -
28/08:00pm 15.5 SSW 4 7 1022.0 - 0.0 - - - - - - -
28/07:30pm 16.5 SSW 5 7 1021.7 - 0.0 - - - - - - -
28/07:00pm 16.8 SSW 5 6 1021.3 - 0.0 - - - - - - -
28/06:30pm 17.4 SSW 3 5 1020.8 - 0.0 - - - - - - -
28/06:00pm 18.0 SSW 3 4 1020.4 - 0.0 - - - - - - -
28/05:30pm 19.8 SSW 4 6 1020.2 - 0.0 - - - - - - -
28/05:00pm 21.4 SSW 6 11 1019.7 - 0.0 - - - - - - -
28/04:30pm 22.8 SSW 7 11 1019.5 - 0.0 - - - - - - -
28/04:00pm 23.5 SSW 7 12 1019.2 - 0.0 - - - - - - -
28/03:30pm 23.9 SSW 7 13 1019.2 - 0.0 - - - - - - -
28/03:00pm 24.1 S 6 11 1019.1 - 0.0 - - - - - - -
28/02:30pm 24.1 SSE 7 13 1019.0 - 0.0 - - - - - - -
28/02:00pm 23.6 S 7 11 1019.1 - 0.0 - - - - - - -
28/01:30pm 23.7 SSW 7 12 1019.2 - 0.0 - - - - - - -
28/01:00pm 23.2 SSW 8 13 1019.6 - 0.0 - - - - - - -
28/12:30pm 23.0 S 7 12 1020.1 - 0.0 - - - - - - -
28/12:00pm 22.4 SSW 7 12 1020.4 - 0.0 - - - - - - -
28/11:30am 21.6 SSW 8 13 1020.6 - 0.0 - - - - - - -
28/11:00am 20.8 S 7 13 1020.9 - 0.0 - - - - - - -
28/10:30am 20.0 SSW 10 16 1021.0 - 0.0 - - - - - - -
28/10:00am 19.3 SSW 10 15 1021.1 - 0.0 - - - - - - -
28/09:30am 18.6 SSW 9 15 1021.1 - 0.0 - - - - - - -
28/09:00am 18.0 SSW 9 17 1020.8 - 0.4 - - - - - - -
28/08:30am 17.3 SSW 10 18 1020.7 - 0.4 - - - - - - -
28/08:00am 16.6 SW 9 16 1020.5 - 0.4 - - - - - - -
28/07:30am 16.1 SW 9 16 1020.0 - 0.4 - - - - - - -
28/07:00am 15.8 SW 9 15 1019.6 - 0.4 - - - - - - -
28/06:30am 15.9 SW 8 12 1019.3 - 0.4 - - - - - - -
28/06:00am 16.3 SSW 7 13 1018.9 - 0.4 - - - - - - -
28/05:30am 16.6 SSW 8 14 1018.6 - 0.4 - - - - - - -
28/05:00am 16.7 SSW 7 11 1018.0 - 0.4 - - - - - - -
28/04:30am 16.9 SSW 6 9 1017.9 - 0.4 - - - - - - -
28/04:00am 17.3 SSW 8 14 1017.6 - 0.4 - - - - - - -
28/03:30am 17.6 SSW 6 9 1017.7 - 0.4 - - - - - - -
28/03:00am 18.1 SSW 6 9 1017.7 - 0.4 - - - - - - -
28/02:30am 18.4 SSW 6 11 1017.4 - 0.4 - - - - - - -
28/02:00am 19.2 SSW 8 13 1017.3 - 0.4 - - - - - - -
28/01:30am 20.3 SSW 6 10 1017.5 - 0.4 - - - - - - -
28/01:00am 21.0 SSW 7 11 1017.6 - 0.4 - - - - - - -
28/12:30am 21.7 S 5 9 1017.4 - 0.2 - - - - - - -
28/12:00am 21.9 SSW 4 6 1017.3 - 0.0 - - - - - - -
 
Date/Time
EST
Temp
°C
Wind Pressure Rain since
9am
mm
Weather Cloud Vis
km
Sea
Height
m
Swell
Dir  Spd
kts
Gust
kts
hPa Trend Height
m
Period
s
Dir
27/11:30pm 21.8 SSW 4 4 1017.1 - 0.0 - - - - - - -
27/11:00pm 22.2 SSW 3 4 1017.1 - 0.0 - - - - - - -
27/10:30pm 22.4 S 3 5 1017.1 - 0.0 - - - - - - -
27/10:00pm 22.6 SSE 1 4 1017.0 - 0.0 - - - - - - -
27/09:30pm 22.4 S 2 4 1016.9 - 0.0 - - - - - - -
27/09:00pm 22.6 S 3 5 1016.7 - 0.0 - - - - - - -
27/08:30pm 22.7 S 1 3 1016.7 - 0.0 - - - - - - -
27/08:00pm 23.1 CALM 0 0 1016.6 - 0.0 - - - - - - -
27/07:30pm 23.0 CALM 0 0 1016.4 - 0.0 - - - - - - -
27/07:00pm 23.2 CALM 0 0 1016.0 - 0.0 - - - - - - -
27/06:30pm 23.5 CALM 0 0 1015.7 - 0.0 - - - - - - -
27/06:00pm 24.1 NE 3 4 1015.5 - 0.0 - - - - - - -
27/05:30pm 24.2 ENE 3 5 1015.3 - 0.0 - - - - - - -
27/05:00pm 24.6 ENE 4 5 1015.0 - 0.0 - - - - - - -
27/04:30pm 25.2 ENE 5 6 1014.7 - 0.0 - - - - - - -
27/04:00pm 25.3 ENE 5 6 1014.5 - 0.0 - - - - - - -
27/03:30pm 24.8 E 4 6 1014.5 - 0.0 - - - - - - -
27/03:00pm 25.5 ENE 5 6 1014.4 - 0.0 - - - - - - -
27/02:30pm 26.0 ENE 6 7 1014.5 - 0.0 - - - - - - -
27/02:00pm 25.5 ENE 6 7 1014.6 - 0.0 - - - - - - -
27/01:30pm 25.5 ENE 5 7 1014.8 - 0.0 - - - - - - -
27/01:00pm 25.1 E 5 7 1015.3 - 0.0 - - - - - - -
27/12:30pm 26.2 E 5 7 1015.7 - 0.0 - - - - - - -
27/12:00pm 25.5 ESE 5 7 1016.1 - 0.0 - - - - - - -
27/11:30am 25.2 ESE 5 8 1016.3 - 0.0 - - - - - - -
27/11:00am 25.7 ESE 5 8 1016.5 - 0.0 - - - - - - -
27/10:30am 26.0 ESE 5 9 1016.7 - 0.0 - - - - - - -
27/10:00am 24.8 E 7 9 1016.7 - 0.0 - - - - - - -
27/09:30am 23.9 E 5 8 1017.0 - 0.0 - - - - - - -
27/09:00am 23.7 ESE 4 6 1017.0 - 0.0 - - - - - - -
27/08:30am 24.1 E 8 10 1016.6 - 0.0 - - - - - - -
27/08:00am 23.6 ESE 5 9 1016.5 - 0.0 - - - - - - -
27/07:30am 22.7 E 5 8 1016.2 - 0.0 - - - - - - -
27/07:00am 22.0 SE 5 7 1016.1 - 0.0 - - - - - - -
27/06:30am 22.4 SE 3 26 1015.8 - 0.0 - - - - - - -
27/06:00am 22.6 SE 3 6 1015.6 - 0.0 - - - - - - -
27/05:30am 23.2 E 3 5 1015.5 - 0.0 - - - - - - -
27/05:00am 23.4 E 6 7 1015.1 - 0.0 - - - - - - -
27/04:30am 23.2 ENE 8 10 1014.8 - 0.0 - - - - - - -
27/04:00am 23.0 ENE 10 12 1014.5 - 0.0 - - - - - - -
27/03:30am 23.2 ENE 10 12 1014.5 - 0.0 - - - - - - -
27/03:00am 23.2 ENE 11 14 1014.7 - 0.0 - - - - - - -
27/02:30am 23.1 ENE 9 12 1014.8 - 0.0 - - - - - - -
27/02:00am 22.8 E 6 8 1015.0 - 0.0 - - - - - - -
27/01:30am 23.1 ENE 9 13 1015.3 - 0.0 - - - - - - -
27/01:00am 22.6 E 10 14 1015.5 - 0.0 - - - - - - -
27/12:30am 22.7 E 12 15 1015.4 - 0.0 - - - - - - -
27/12:00am 22.6 E 11 16 1015.5 - 0.0 - - - - - - -
 
Date/Time
EST
Temp
°C
Wind Pressure Rain since
9am
mm
Weather Cloud Vis
km
Sea
Height
m
Swell
Dir  Spd
kts
Gust
kts
hPa Trend Height
m
Period
s
Dir
26/11:30pm 22.6 E 11 15 1015.5 - 0.0 - - - - - - -
26/11:00pm 22.6 E 11 15 1015.7 - 0.0 - - - - - - -
26/10:30pm 22.6 E 11 16 1015.8 - 0.0 - - - - - - -
26/10:00pm 22.7 E 12 17 1016.0 - 0.0 - - - - - - -
26/09:30pm 22.6 E 12 15 1016.0 - 0.0 - - - - - - -
26/09:00pm 22.4 E 11 14 1016.1 - 0.0 - - - - - - -
26/08:30pm 22.5 E 11 15 1015.9 - 0.0 - - - - - - -
26/08:00pm 22.6 E 12 17 1015.6 - 0.0 - - - - - - -
26/07:30pm 22.5 E 12 16 1015.5 - 0.0 - - - - - - -
26/07:00pm 22.6 E 13 17 1015.4 - 0.0 - - - - - - -
26/06:30pm 22.6 E 13 18 1015.0 - 0.0 - - - - - - -
26/06:00pm 22.3 E 12 18 1015.0 - 0.0 - - - - - - -
26/05:30pm 22.4 E 11 16 1014.8 - 0.0 - - - - - - -
26/05:00pm 22.4 E 11 17 1014.5 - 0.0 - - - - - - -
26/04:30pm 22.7 E 11 16 1014.3 - 0.0 - - - - - - -
26/04:00pm 23.6 E 11 16 1014.3 - 0.0 - - - - - - -
26/03:30pm 23.7 E 11 16 1014.3 - 0.0 - - - - - - -
26/03:00pm 23.2 ESE 11 16 1014.4 - 0.0 - - - - - - -
26/02:30pm 23.5 E 12 16 1014.4 - 0.0 - - - - - - -
26/02:00pm 23.6 E 11 16 1014.6 - 0.0 - - - - - - -
26/01:30pm 23.8 ESE 10 15 1015.1 - 0.0 - - - - - - -
26/01:00pm 24.1 ESE 10 16 1015.4 - 0.0 - - - - - - -
26/12:30pm 23.9 ESE 10 17 1015.8 - 0.0 - - - - - - -
26/12:00pm 24.2 ESE 9 14 1016.4 - 0.0 - - - - - - -

Other Formats:

Comma delimited format used in spreadsheet applications
http://www.bom.gov.au/fwo/IDQ60701/IDQ60701.95296.axf

JavaScript Object Notation format (JSON) in row-major order
http://www.bom.gov.au/fwo/IDQ60701/IDQ60701.95296.json